sensor_id;sensor_type;location;lat;lon;timestamp;temperature;humidity
24448;DHT22;13348;50.984;5.822;2023-04-03T00:01:03;0.80;99.90
24448;DHT22;13348;50.984;5.822;2023-04-03T00:03:32;0.70;99.90
24448;DHT22;13348;50.984;5.822;2023-04-03T00:05:59;0.70;99.90
24448;DHT22;13348;50.984;5.822;2023-04-03T00:08:26;0.60;99.90
24448;DHT22;13348;50.984;5.822;2023-04-03T00:10:56;0.60;99.90
24448;DHT22;13348;50.984;5.822;2023-04-03T00:13:23;0.60;99.90
24448;DHT22;13348;50.984;5.822;2023-04-03T00:15:50;0.60;99.90
24448;DHT22;13348;50.984;5.822;2023-04-03T00:18:17;0.60;99.90
24448;DHT22;13348;50.984;5.822;2023-04-03T00:20:45;0.50;99.90
24448;DHT22;13348;50.984;5.822;2023-04-03T00:23:12;0.40;99.90
24448;DHT22;13348;50.984;5.822;2023-04-03T00:25:40;0.50;99.90
24448;DHT22;13348;50.984;5.822;2023-04-03T00:28:07;0.60;99.90
24448;DHT22;13348;50.984;5.822;2023-04-03T00:30:34;0.50;99.90
24448;DHT22;13348;50.984;5.822;2023-04-03T00:33:01;0.40;99.90
24448;DHT22;13348;50.984;5.822;2023-04-03T00:35:28;0.30;99.90
24448;DHT22;13348;50.984;5.822;2023-04-03T00:37:56;0.30;99.90
24448;DHT22;13348;50.984;5.822;2023-04-03T00:40:24;0.40;99.90
24448;DHT22;13348;50.984;5.822;2023-04-03T00:42:54;0.30;99.90
24448;DHT22;13348;50.984;5.822;2023-04-03T00:45:32;0.40;99.90
24448;DHT22;13348;50.984;5.822;2023-04-03T00:48:00;0.40;99.90
24448;DHT22;13348;50.984;5.822;2023-04-03T00:50:27;0.50;99.90
24448;DHT22;13348;50.984;5.822;2023-04-03T00:52:56;0.40;99.90
24448;DHT22;13348;50.984;5.822;2023-04-03T00:55:24;0.40;99.90
24448;DHT22;13348;50.984;5.822;2023-04-03T00:57:51;0.50;99.90
24448;DHT22;13348;50.984;5.822;2023-04-03T01:00:19;0.60;99.90
24448;DHT22;13348;50.984;5.822;2023-04-03T01:02:47;0.60;99.90
24448;DHT22;13348;50.984;5.822;2023-04-03T01:05:15;0.50;99.90
24448;DHT22;13348;50.984;5.822;2023-04-03T01:07:42;0.40;99.90
24448;DHT22;13348;50.984;5.822;2023-04-03T01:10:12;0.40;99.90
24448;DHT22;13348;50.984;5.822;2023-04-03T01:12:41;0.30;99.90
24448;DHT22;13348;50.984;5.822;2023-04-03T01:15:09;0.30;99.90
24448;DHT22;13348;50.984;5.822;2023-04-03T01:17:38;0.20;99.90
24448;DHT22;13348;50.984;5.822;2023-04-03T01:20:18;0.10;99.90
24448;DHT22;13348;50.984;5.822;2023-04-03T01:22:52;0.00;99.90
24448;DHT22;13348;50.984;5.822;2023-04-03T01:25:22;0.00;99.90
24448;DHT22;13348;50.984;5.822;2023-04-03T01:27:49;-0.10;99.90
24448;DHT22;13348;50.984;5.822;2023-04-03T01:30:17;-0.20;99.90
24448;DHT22;13348;50.984;5.822;2023-04-03T01:32:46;-0.20;99.90
24448;DHT22;13348;50.984;5.822;2023-04-03T01:35:13;-0.20;99.90
24448;DHT22;13348;50.984;5.822;2023-04-03T01:37:40;-0.30;99.90
24448;DHT22;13348;50.984;5.822;2023-04-03T01:40:07;-0.20;99.90
24448;DHT22;13348;50.984;5.822;2023-04-03T01:42:34;-0.30;99.90
24448;DHT22;13348;50.984;5.822;2023-04-03T01:45:01;-0.40;99.90
24448;DHT22;13348;50.984;5.822;2023-04-03T01:47:28;-0.40;99.90
24448;DHT22;13348;50.984;5.822;2023-04-03T01:49:57;-0.30;99.90
24448;DHT22;13348;50.984;5.822;2023-04-03T01:52:23;-0.40;99.90
24448;DHT22;13348;50.984;5.822;2023-04-03T01:54:50;-0.50;99.90
24448;DHT22;13348;50.984;5.822;2023-04-03T01:57:17;-0.50;99.90
24448;DHT22;13348;50.984;5.822;2023-04-03T01:59:44;-0.50;99.90
24448;DHT22;13348;50.984;5.822;2023-04-03T02:02:11;-0.60;99.90
24448;DHT22;13348;50.984;5.822;2023-04-03T02:04:40;-0.70;99.90
24448;DHT22;13348;50.984;5.822;2023-04-03T02:07:08;-0.60;99.90
24448;DHT22;13348;50.984;5.822;2023-04-03T02:09:35;-0.70;99.90
24448;DHT22;13348;50.984;5.822;2023-04-03T02:12:02;-0.60;99.90
24448;DHT22;13348;50.984;5.822;2023-04-03T02:14:29;-0.70;99.90
24448;DHT22;13348;50.984;5.822;2023-04-03T02:16:56;-0.80;99.90
24448;DHT22;13348;50.984;5.822;2023-04-03T02:19:23;-0.90;99.90
24448;DHT22;13348;50.984;5.822;2023-04-03T02:21:50;-0.90;99.90
24448;DHT22;13348;50.984;5.822;2023-04-03T02:24:18;-0.90;99.90
24448;DHT22;13348;50.984;5.822;2023-04-03T02:26:45;-0.80;99.90
24448;DHT22;13348;50.984;5.822;2023-04-03T02:29:12;-0.90;99.90
24448;DHT22;13348;50.984;5.822;2023-04-03T02:31:39;-0.90;99.90
24448;DHT22;13348;50.984;5.822;2023-04-03T02:34:06;-0.90;99.90
24448;DHT22;13348;50.984;5.822;2023-04-03T02:36:33;-0.90;99.90
24448;DHT22;13348;50.984;5.822;2023-04-03T02:39:00;-1.00;99.90
24448;DHT22;13348;50.984;5.822;2023-04-03T02:41:28;-0.90;99.90
24448;DHT22;13348;50.984;5.822;2023-04-03T02:44:00;-0.90;99.90
24448;DHT22;13348;50.984;5.822;2023-04-03T02:46:27;-0.90;99.90
24448;DHT22;13348;50.984;5.822;2023-04-03T02:48:54;-0.80;99.90
24448;DHT22;13348;50.984;5.822;2023-04-03T02:51:21;-0.70;99.90
24448;DHT22;13348;50.984;5.822;2023-04-03T02:53:48;-0.70;99.90
24448;DHT22;13348;50.984;5.822;2023-04-03T02:56:15;-0.70;99.90
24448;DHT22;13348;50.984;5.822;2023-04-03T02:58:44;-0.60;99.90
24448;DHT22;13348;50.984;5.822;2023-04-03T03:01:11;-0.50;99.90
24448;DHT22;13348;50.984;5.822;2023-04-03T03:03:38;-0.50;99.90
24448;DHT22;13348;50.984;5.822;2023-04-03T03:06:06;-0.50;99.90
24448;DHT22;13348;50.984;5.822;2023-04-03T03:08:33;-0.50;99.90
24448;DHT22;13348;50.984;5.822;2023-04-03T03:11:01;-0.50;99.90
24448;DHT22;13348;50.984;5.822;2023-04-03T03:13:28;-0.50;99.90
24448;DHT22;13348;50.984;5.822;2023-04-03T03:15:56;-0.50;99.90
24448;DHT22;13348;50.984;5.822;2023-04-03T03:18:23;-0.50;99.90
24448;DHT22;13348;50.984;5.822;2023-04-03T03:20:51;-0.50;99.90
24448;DHT22;13348;50.984;5.822;2023-04-03T03:23:17;-0.60;99.90
24448;DHT22;13348;50.984;5.822;2023-04-03T03:25:44;-0.60;99.90
24448;DHT22;13348;50.984;5.822;2023-04-03T03:28:11;-0.60;99.90
24448;DHT22;13348;50.984;5.822;2023-04-03T03:30:38;-0.60;99.90
24448;DHT22;13348;50.984;5.822;2023-04-03T03:33:07;-0.70;99.90
24448;DHT22;13348;50.984;5.822;2023-04-03T03:35:34;-0.80;99.90
24448;DHT22;13348;50.984;5.822;2023-04-03T03:38:01;-0.80;99.90
24448;DHT22;13348;50.984;5.822;2023-04-03T03:40:27;-0.80;99.90
24448;DHT22;13348;50.984;5.822;2023-04-03T03:42:54;-0.80;99.90
24448;DHT22;13348;50.984;5.822;2023-04-03T03:45:21;-0.80;99.90
24448;DHT22;13348;50.984;5.822;2023-04-03T03:47:48;-0.90;99.90
24448;DHT22;13348;50.984;5.822;2023-04-03T03:50:17;-1.00;99.90
24448;DHT22;13348;50.984;5.822;2023-04-03T03:52:44;-1.00;99.90
24448;DHT22;13348;50.984;5.822;2023-04-03T03:55:11;-1.00;99.90
24448;DHT22;13348;50.984;5.822;2023-04-03T03:57:38;-1.00;99.90
24448;DHT22;13348;50.984;5.822;2023-04-03T04:00:06;-0.90;99.90
24448;DHT22;13348;50.984;5.822;2023-04-03T04:02:34;-1.00;99.90
24448;DHT22;13348;50.984;5.822;2023-04-03T04:05:01;-1.10;99.90
24448;DHT22;13348;50.984;5.822;2023-04-03T04:07:29;-1.10;99.90
24448;DHT22;13348;50.984;5.822;2023-04-03T04:09:56;-1.20;99.90
24448;DHT22;13348;50.984;5.822;2023-04-03T04:12:23;-1.10;99.90
24448;DHT22;13348;50.984;5.822;2023-04-03T04:14:50;-1.10;99.90
24448;DHT22;13348;50.984;5.822;2023-04-03T04:17:17;-1.10;99.90
24448;DHT22;13348;50.984;5.822;2023-04-03T04:19:44;-1.20;99.90
24448;DHT22;13348;50.984;5.822;2023-04-03T04:22:10;-1.20;99.90
24448;DHT22;13348;50.984;5.822;2023-04-03T04:24:39;-1.30;99.90
24448;DHT22;13348;50.984;5.822;2023-04-03T04:27:05;-1.20;99.90
24448;DHT22;13348;50.984;5.822;2023-04-03T04:29:32;-1.20;99.90
24448;DHT22;13348;50.984;5.822;2023-04-03T04:32:01;-1.20;99.90
24448;DHT22;13348;50.984;5.822;2023-04-03T04:34:29;-1.30;99.90
24448;DHT22;13348;50.984;5.822;2023-04-03T04:36:56;-1.30;99.90
24448;DHT22;13348;50.984;5.822;2023-04-03T04:39:23;-1.40;99.90
24448;DHT22;13348;50.984;5.822;2023-04-03T04:41:51;-1.20;99.90
24448;DHT22;13348;50.984;5.822;2023-04-03T04:44:18;-1.30;99.90
24448;DHT22;13348;50.984;5.822;2023-04-03T04:46:45;-1.20;99.90
24448;DHT22;13348;50.984;5.822;2023-04-03T04:49:12;-1.10;99.90
24448;DHT22;13348;50.984;5.822;2023-04-03T04:51:39;-1.30;99.90
24448;DHT22;13348;50.984;5.822;2023-04-03T04:54:06;-1.10;99.90
24448;DHT22;13348;50.984;5.822;2023-04-03T04:56:35;-0.90;99.90
24448;DHT22;13348;50.984;5.822;2023-04-03T04:59:03;-0.90;99.90
24448;DHT22;13348;50.984;5.822;2023-04-03T05:01:30;-0.90;99.90
24448;DHT22;13348;50.984;5.822;2023-04-03T05:03:56;-0.90;99.90
24448;DHT22;13348;50.984;5.822;2023-04-03T05:06:23;-0.90;99.90
24448;DHT22;13348;50.984;5.822;2023-04-03T05:08:50;-1.00;99.90
24448;DHT22;13348;50.984;5.822;2023-04-03T05:11:17;-1.00;99.90
24448;DHT22;13348;50.984;5.822;2023-04-03T05:13:44;-1.00;99.90
24448;DHT22;13348;50.984;5.822;2023-04-03T05:16:12;-1.00;99.90
24448;DHT22;13348;50.984;5.822;2023-04-03T05:18:39;-1.10;99.90
24448;DHT22;13348;50.984;5.822;2023-04-03T05:21:06;-1.00;99.90
24448;DHT22;13348;50.984;5.822;2023-04-03T05:23:33;-0.90;99.90
24448;DHT22;13348;50.984;5.822;2023-04-03T05:26:00;-0.70;99.90
24448;DHT22;13348;50.984;5.822;2023-04-03T05:28:26;-0.60;99.90
24448;DHT22;13348;50.984;5.822;2023-04-03T05:30:53;-0.50;99.90
24448;DHT22;13348;50.984;5.822;2023-04-03T05:33:23;-0.30;99.90
24448;DHT22;13348;50.984;5.822;2023-04-03T05:35:50;-0.30;99.90
24448;DHT22;13348;50.984;5.822;2023-04-03T05:38:17;-0.20;99.90
24448;DHT22;13348;50.984;5.822;2023-04-03T05:40:44;-0.20;99.90
24448;DHT22;13348;50.984;5.822;2023-04-03T05:43:10;-0.10;99.90
24448;DHT22;13348;50.984;5.822;2023-04-03T05:45:37;0.10;99.90
24448;DHT22;13348;50.984;5.822;2023-04-03T05:48:04;0.40;99.90
24448;DHT22;13348;50.984;5.822;2023-04-03T05:50:33;0.60;99.90
24448;DHT22;13348;50.984;5.822;2023-04-03T05:52:59;0.80;99.90
24448;DHT22;13348;50.984;5.822;2023-04-03T05:55:28;0.90;99.90
24448;DHT22;13348;50.984;5.822;2023-04-03T05:57:56;1.10;99.90
24448;DHT22;13348;50.984;5.822;2023-04-03T06:00:22;1.20;99.90
24448;DHT22;13348;50.984;5.822;2023-04-03T06:02:50;1.30;99.90
24448;DHT22;13348;50.984;5.822;2023-04-03T06:05:17;1.50;99.90
24448;DHT22;13348;50.984;5.822;2023-04-03T06:07:45;1.50;99.90
24448;DHT22;13348;50.984;5.822;2023-04-03T06:10:14;1.60;99.90
24448;DHT22;13348;50.984;5.822;2023-04-03T06:12:41;1.80;99.90
24448;DHT22;13348;50.984;5.822;2023-04-03T06:15:08;1.90;99.90
24448;DHT22;13348;50.984;5.822;2023-04-03T06:17:37;2.00;99.90
24448;DHT22;13348;50.984;5.822;2023-04-03T06:20:04;2.10;99.90
24448;DHT22;13348;50.984;5.822;2023-04-03T06:22:31;2.20;99.90
24448;DHT22;13348;50.984;5.822;2023-04-03T06:24:59;2.30;99.90
24448;DHT22;13348;50.984;5.822;2023-04-03T06:27:27;2.40;99.90
24448;DHT22;13348;50.984;5.822;2023-04-03T06:29:54;2.50;99.90
24448;DHT22;13348;50.984;5.822;2023-04-03T06:32:20;2.60;99.90
24448;DHT22;13348;50.984;5.822;2023-04-03T06:34:47;2.80;99.90
24448;DHT22;13348;50.984;5.822;2023-04-03T06:37:14;2.80;99.90
24448;DHT22;13348;50.984;5.822;2023-04-03T06:39:42;2.80;99.90
24448;DHT22;13348;50.984;5.822;2023-04-03T06:42:10;2.90;99.90
24448;DHT22;13348;50.984;5.822;2023-04-03T06:44:37;3.10;99.90
24448;DHT22;13348;50.984;5.822;2023-04-03T06:47:04;3.10;99.90
24448;DHT22;13348;50.984;5.822;2023-04-03T06:49:31;3.20;99.90
24448;DHT22;13348;50.984;5.822;2023-04-03T06:51:58;3.20;99.90
24448;DHT22;13348;50.984;5.822;2023-04-03T06:54:25;3.30;99.90
24448;DHT22;13348;50.984;5.822;2023-04-03T06:56:52;3.30;99.90
24448;DHT22;13348;50.984;5.822;2023-04-03T06:59:20;3.30;99.90
24448;DHT22;13348;50.984;5.822;2023-04-03T07:01:47;3.40;99.90
24448;DHT22;13348;50.984;5.822;2023-04-03T07:04:14;3.50;99.90
24448;DHT22;13348;50.984;5.822;2023-04-03T07:06:41;3.40;99.90
24448;DHT22;13348;50.984;5.822;2023-04-03T07:09:08;3.50;99.90
24448;DHT22;13348;50.984;5.822;2023-04-03T07:11:36;3.50;99.90
24448;DHT22;13348;50.984;5.822;2023-04-03T07:14:03;3.40;99.90
24448;DHT22;13348;50.984;5.822;2023-04-03T07:16:33;3.70;99.90
24448;DHT22;13348;50.984;5.822;2023-04-03T07:19:00;3.90;99.90
24448;DHT22;13348;50.984;5.822;2023-04-03T07:21:27;4.00;99.90
24448;DHT22;13348;50.984;5.822;2023-04-03T07:23:54;3.90;99.90
24448;DHT22;13348;50.984;5.822;2023-04-03T07:26:22;3.80;99.90
24448;DHT22;13348;50.984;5.822;2023-04-03T07:28:51;3.60;99.90
24448;DHT22;13348;50.984;5.822;2023-04-03T07:31:18;3.90;99.90
24448;DHT22;13348;50.984;5.822;2023-04-03T07:33:46;4.00;99.90
24448;DHT22;13348;50.984;5.822;2023-04-03T07:36:14;3.90;99.90
24448;DHT22;13348;50.984;5.822;2023-04-03T07:38:41;3.90;99.90
24448;DHT22;13348;50.984;5.822;2023-04-03T07:41:10;4.00;99.90
24448;DHT22;13348;50.984;5.822;2023-04-03T07:43:38;3.90;99.90
24448;DHT22;13348;50.984;5.822;2023-04-03T07:46:06;3.80;99.90
24448;DHT22;13348;50.984;5.822;2023-04-03T07:48:33;3.60;99.90
24448;DHT22;13348;50.984;5.822;2023-04-03T07:51:02;3.70;99.90
24448;DHT22;13348;50.984;5.822;2023-04-03T07:53:29;3.80;99.90
24448;DHT22;13348;50.984;5.822;2023-04-03T07:55:56;3.80;99.90
24448;DHT22;13348;50.984;5.822;2023-04-03T07:58:23;3.90;99.90
24448;DHT22;13348;50.984;5.822;2023-04-03T08:00:51;4.00;99.90
24448;DHT22;13348;50.984;5.822;2023-04-03T08:03:18;4.00;99.90
24448;DHT22;13348;50.984;5.822;2023-04-03T08:05:45;4.10;99.90
24448;DHT22;13348;50.984;5.822;2023-04-03T08:08:15;4.30;99.90
24448;DHT22;13348;50.984;5.822;2023-04-03T08:10:42;4.20;99.90
24448;DHT22;13348;50.984;5.822;2023-04-03T08:13:09;4.20;99.90
24448;DHT22;13348;50.984;5.822;2023-04-03T08:15:36;4.20;99.90
24448;DHT22;13348;50.984;5.822;2023-04-03T08:18:03;4.20;99.90
24448;DHT22;13348;50.984;5.822;2023-04-03T08:20:31;4.30;99.90
24448;DHT22;13348;50.984;5.822;2023-04-03T08:22:57;4.40;99.90
24448;DHT22;13348;50.984;5.822;2023-04-03T08:25:26;4.50;99.90
24448;DHT22;13348;50.984;5.822;2023-04-03T08:27:55;4.70;99.90
24448;DHT22;13348;50.984;5.822;2023-04-03T08:30:22;4.70;99.90
24448;DHT22;13348;50.984;5.822;2023-04-03T08:32:48;4.90;99.90
24448;DHT22;13348;50.984;5.822;2023-04-03T08:35:15;4.90;99.90
24448;DHT22;13348;50.984;5.822;2023-04-03T08:37:42;4.80;99.90
24448;DHT22;13348;50.984;5.822;2023-04-03T08:40:12;4.90;99.90
24448;DHT22;13348;50.984;5.822;2023-04-03T08:42:44;4.90;99.90
24448;DHT22;13348;50.984;5.822;2023-04-03T08:45:13;5.00;99.90
24448;DHT22;13348;50.984;5.822;2023-04-03T08:47:43;5.00;99.90
24448;DHT22;13348;50.984;5.822;2023-04-03T08:50:14;5.10;99.90
24448;DHT22;13348;50.984;5.822;2023-04-03T08:52:42;5.20;99.90
24448;DHT22;13348;50.984;5.822;2023-04-03T08:55:14;5.30;99.90
24448;DHT22;13348;50.984;5.822;2023-04-03T08:57:44;5.40;99.90
24448;DHT22;13348;50.984;5.822;2023-04-03T09:00:15;5.30;99.90
24448;DHT22;13348;50.984;5.822;2023-04-03T09:02:43;5.50;99.90
24448;DHT22;13348;50.984;5.822;2023-04-03T09:05:12;5.50;99.90
24448;DHT22;13348;50.984;5.822;2023-04-03T09:07:42;5.90;99.90
24448;DHT22;13348;50.984;5.822;2023-04-03T09:10:10;5.80;99.90
24448;DHT22;13348;50.984;5.822;2023-04-03T09:12:39;5.80;99.90
24448;DHT22;13348;50.984;5.822;2023-04-03T09:15:16;6.10;99.90
24448;DHT22;13348;50.984;5.822;2023-04-03T09:17:47;6.10;99.90
24448;DHT22;13348;50.984;5.822;2023-04-03T09:20:19;6.10;99.90
24448;DHT22;13348;50.984;5.822;2023-04-03T09:22:49;6.10;99.90
24448;DHT22;13348;50.984;5.822;2023-04-03T09:25:19;6.10;99.90
24448;DHT22;13348;50.984;5.822;2023-04-03T09:27:46;6.10;99.90
24448;DHT22;13348;50.984;5.822;2023-04-03T09:30:14;6.10;99.90
24448;DHT22;13348;50.984;5.822;2023-04-03T09:32:43;6.30;99.90
24448;DHT22;13348;50.984;5.822;2023-04-03T09:35:16;6.60;99.90
24448;DHT22;13348;50.984;5.822;2023-04-03T09:37:43;6.90;99.90
24448;DHT22;13348;50.984;5.822;2023-04-03T09:42:53;7.20;99.90
24448;DHT22;13348;50.984;5.822;2023-04-03T09:45:22;7.60;99.90
24448;DHT22;13348;50.984;5.822;2023-04-03T09:47:53;7.60;99.90
24448;DHT22;13348;50.984;5.822;2023-04-03T09:50:30;7.40;99.90
24448;DHT22;13348;50.984;5.822;2023-04-03T09:52:57;7.80;99.90
24448;DHT22;13348;50.984;5.822;2023-04-03T09:55:25;8.00;99.90
24448;DHT22;13348;50.984;5.822;2023-04-03T09:57:55;8.20;99.90
24448;DHT22;13348;50.984;5.822;2023-04-03T10:00:24;8.20;99.90
24448;DHT22;13348;50.984;5.822;2023-04-03T10:02:51;8.30;99.90
24448;DHT22;13348;50.984;5.822;2023-04-03T10:05:29;8.50;99.90
24448;DHT22;13348;50.984;5.822;2023-04-03T10:08:07;8.50;99.90
24448;DHT22;13348;50.984;5.822;2023-04-03T10:10:34;8.40;99.90
24448;DHT22;13348;50.984;5.822;2023-04-03T10:13:05;8.60;99.90
24448;DHT22;13348;50.984;5.822;2023-04-03T10:15:33;8.80;99.90
24448;DHT22;13348;50.984;5.822;2023-04-03T10:18:03;8.60;99.90
24448;DHT22;13348;50.984;5.822;2023-04-03T10:20:34;8.40;99.90
24448;DHT22;13348;50.984;5.822;2023-04-03T10:23:10;8.90;99.90
24448;DHT22;13348;50.984;5.822;2023-04-03T10:25:44;8.90;99.90
24448;DHT22;13348;50.984;5.822;2023-04-03T10:28:15;8.70;99.90
24448;DHT22;13348;50.984;5.822;2023-04-03T10:30:48;8.60;99.90
24448;DHT22;13348;50.984;5.822;2023-04-03T10:33:22;8.80;99.90
24448;DHT22;13348;50.984;5.822;2023-04-03T10:35:57;8.90;99.90
24448;DHT22;13348;50.984;5.822;2023-04-03T10:38:30;9.00;99.90
24448;DHT22;13348;50.984;5.822;2023-04-03T10:41:00;9.50;99.90
24448;DHT22;13348;50.984;5.822;2023-04-03T10:43:33;9.20;99.90
24448;DHT22;13348;50.984;5.822;2023-04-03T10:46:04;9.00;99.90
24448;DHT22;13348;50.984;5.822;2023-04-03T10:48:45;9.10;99.90
24448;DHT22;13348;50.984;5.822;2023-04-03T10:51:18;9.00;99.90
24448;DHT22;13348;50.984;5.822;2023-04-03T10:53:51;9.00;99.90
24448;DHT22;13348;50.984;5.822;2023-04-03T10:56:21;9.20;99.90
24448;DHT22;13348;50.984;5.822;2023-04-03T10:58:50;9.30;99.20
24448;DHT22;13348;50.984;5.822;2023-04-03T11:01:20;9.30;99.90
24448;DHT22;13348;50.984;5.822;2023-04-03T11:03:49;9.10;99.80
24448;DHT22;13348;50.984;5.822;2023-04-03T11:06:18;9.10;99.00
24448;DHT22;13348;50.984;5.822;2023-04-03T11:08:48;9.50;99.90
24448;DHT22;13348;50.984;5.822;2023-04-03T11:11:17;9.80;99.30
24448;DHT22;13348;50.984;5.822;2023-04-03T11:13:48;9.70;99.90
24448;DHT22;13348;50.984;5.822;2023-04-03T11:16:18;9.50;99.90
24448;DHT22;13348;50.984;5.822;2023-04-03T11:18:47;10.00;99.90
24448;DHT22;13348;50.984;5.822;2023-04-03T11:21:19;10.20;98.20
24448;DHT22;13348;50.984;5.822;2023-04-03T11:23:47;10.60;99.90
24448;DHT22;13348;50.984;5.822;2023-04-03T11:26:15;9.90;98.00
24448;DHT22;13348;50.984;5.822;2023-04-03T11:28:43;10.00;97.90
24448;DHT22;13348;50.984;5.822;2023-04-03T11:31:14;10.10;98.70
24448;DHT22;13348;50.984;5.822;2023-04-03T11:33:45;10.50;99.80
24448;DHT22;13348;50.984;5.822;2023-04-03T11:36:19;10.20;98.70
24448;DHT22;13348;50.984;5.822;2023-04-03T11:38:48;10.20;99.80
24448;DHT22;13348;50.984;5.822;2023-04-03T11:41:16;10.50;98.80
24448;DHT22;13348;50.984;5.822;2023-04-03T11:43:55;10.90;97.90
24448;DHT22;13348;50.984;5.822;2023-04-03T11:46:23;10.50;98.80
24448;DHT22;13348;50.984;5.822;2023-04-03T11:49:13;10.30;96.70
24448;DHT22;13348;50.984;5.822;2023-04-03T11:52:02;11.00;98.10
24448;DHT22;13348;50.984;5.822;2023-04-03T12:02:46;10.80;97.80
24448;DHT22;13348;50.984;5.822;2023-04-03T12:10:42;10.50;98.90
24448;DHT22;13348;50.984;5.822;2023-04-03T12:13:13;10.80;99.20
24448;DHT22;13348;50.984;5.822;2023-04-03T12:15:47;11.10;97.40
24448;DHT22;13348;50.984;5.822;2023-04-03T12:21:00;10.30;97.40
24448;DHT22;13348;50.984;5.822;2023-04-03T12:23:28;10.20;97.40
24448;DHT22;13348;50.984;5.822;2023-04-03T12:26:02;10.40;98.10
24448;DHT22;13348;50.984;5.822;2023-04-03T12:28:35;10.30;95.90
24448;DHT22;13348;50.984;5.822;2023-04-03T12:31:03;10.20;96.90
24448;DHT22;13348;50.984;5.822;2023-04-03T12:33:32;10.20;95.30
24448;DHT22;13348;50.984;5.822;2023-04-03T12:36:07;10.40;95.50
24448;DHT22;13348;50.984;5.822;2023-04-03T12:41:30;10.50;96.00
24448;DHT22;13348;50.984;5.822;2023-04-03T12:44:10;10.60;96.40
24448;DHT22;13348;50.984;5.822;2023-04-03T12:46:42;10.80;98.10
24448;DHT22;13348;50.984;5.822;2023-04-03T12:49:17;10.90;95.70
24448;DHT22;13348;50.984;5.822;2023-04-03T12:51:47;10.40;96.70
24448;DHT22;13348;50.984;5.822;2023-04-03T12:54:16;10.70;97.10
24448;DHT22;13348;50.984;5.822;2023-04-03T12:56:45;10.50;97.30
24448;DHT22;13348;50.984;5.822;2023-04-03T12:59:13;10.10;96.90
24448;DHT22;13348;50.984;5.822;2023-04-03T13:01:40;10.50;98.00
24448;DHT22;13348;50.984;5.822;2023-04-03T13:04:07;10.10;98.60
24448;DHT22;13348;50.984;5.822;2023-04-03T13:06:38;10.20;99.50
24448;DHT22;13348;50.984;5.822;2023-04-03T13:09:06;10.00;97.60
24448;DHT22;13348;50.984;5.822;2023-04-03T13:11:33;10.00;96.80
24448;DHT22;13348;50.984;5.822;2023-04-03T13:14:04;10.00;96.70
24448;DHT22;13348;50.984;5.822;2023-04-03T13:16:32;10.50;98.10
24448;DHT22;13348;50.984;5.822;2023-04-03T13:18:59;10.60;97.00
24448;DHT22;13348;50.984;5.822;2023-04-03T13:21:26;10.70;95.40
24448;DHT22;13348;50.984;5.822;2023-04-03T13:23:54;10.90;96.10
24448;DHT22;13348;50.984;5.822;2023-04-03T13:26:24;10.80;98.60
24448;DHT22;13348;50.984;5.822;2023-04-03T13:28:53;11.20;96.90
24448;DHT22;13348;50.984;5.822;2023-04-03T13:31:24;11.20;97.20
24448;DHT22;13348;50.984;5.822;2023-04-03T13:33:54;10.50;94.70
24448;DHT22;13348;50.984;5.822;2023-04-03T13:36:21;10.20;95.90
24448;DHT22;13348;50.984;5.822;2023-04-03T13:38:57;9.90;96.80
24448;DHT22;13348;50.984;5.822;2023-04-03T13:41:25;10.00;98.60
24448;DHT22;13348;50.984;5.822;2023-04-03T13:43:53;9.90;98.50
24448;DHT22;13348;50.984;5.822;2023-04-03T13:46:22;9.90;96.70
24448;DHT22;13348;50.984;5.822;2023-04-03T13:48:51;10.10;96.60
24448;DHT22;13348;50.984;5.822;2023-04-03T13:51:19;10.60;99.00
24448;DHT22;13348;50.984;5.822;2023-04-03T13:53:48;10.60;97.10
24448;DHT22;13348;50.984;5.822;2023-04-03T13:56:17;11.00;96.70
24448;DHT22;13348;50.984;5.822;2023-04-03T13:58:57;11.40;95.70
24448;DHT22;13348;50.984;5.822;2023-04-03T14:01:24;11.50;94.70
24448;DHT22;13348;50.984;5.822;2023-04-03T14:03:54;11.30;94.10
24448;DHT22;13348;50.984;5.822;2023-04-03T14:06:22;11.50;94.20
24448;DHT22;13348;50.984;5.822;2023-04-03T14:08:49;10.70;95.80
24448;DHT22;13348;50.984;5.822;2023-04-03T14:11:18;10.80;93.70
24448;DHT22;13348;50.984;5.822;2023-04-03T14:13:46;10.80;94.00
24448;DHT22;13348;50.984;5.822;2023-04-03T14:16:14;11.20;92.60
24448;DHT22;13348;50.984;5.822;2023-04-03T14:18:42;11.70;91.80
24448;DHT22;13348;50.984;5.822;2023-04-03T14:21:12;11.50;92.80
24448;DHT22;13348;50.984;5.822;2023-04-03T14:23:39;11.20;92.10
24448;DHT22;13348;50.984;5.822;2023-04-03T14:26:08;11.30;91.80
24448;DHT22;13348;50.984;5.822;2023-04-03T14:28:36;11.60;91.40
24448;DHT22;13348;50.984;5.822;2023-04-03T14:31:05;11.70;91.10
24448;DHT22;13348;50.984;5.822;2023-04-03T14:33:32;12.10;91.00
24448;DHT22;13348;50.984;5.822;2023-04-03T14:36:01;11.90;89.20
24448;DHT22;13348;50.984;5.822;2023-04-03T14:38:30;11.60;88.90
24448;DHT22;13348;50.984;5.822;2023-04-03T14:40:57;12.10;90.90
24448;DHT22;13348;50.984;5.822;2023-04-03T14:43:24;12.40;90.50
24448;DHT22;13348;50.984;5.822;2023-04-03T14:45:52;12.50;90.50
24448;DHT22;13348;50.984;5.822;2023-04-03T14:48:19;12.30;90.80
24448;DHT22;13348;50.984;5.822;2023-04-03T14:50:47;12.50;92.10
24448;DHT22;13348;50.984;5.822;2023-04-03T14:53:14;12.50;91.30
24448;DHT22;13348;50.984;5.822;2023-04-03T14:55:43;12.50;89.90
24448;DHT22;13348;50.984;5.822;2023-04-03T14:58:14;12.10;86.30
24448;DHT22;13348;50.984;5.822;2023-04-03T15:00:42;12.10;87.70
24448;DHT22;13348;50.984;5.822;2023-04-03T15:03:13;12.10;90.00
24448;DHT22;13348;50.984;5.822;2023-04-03T15:05:40;12.30;91.00
24448;DHT22;13348;50.984;5.822;2023-04-03T15:08:08;12.50;91.30
24448;DHT22;13348;50.984;5.822;2023-04-03T15:10:44;12.20;90.90
24448;DHT22;13348;50.984;5.822;2023-04-03T15:13:11;12.20;91.10
24448;DHT22;13348;50.984;5.822;2023-04-03T15:15:38;11.80;90.00
24448;DHT22;13348;50.984;5.822;2023-04-03T15:18:05;11.60;89.90
24448;DHT22;13348;50.984;5.822;2023-04-03T15:20:32;11.70;90.70
24448;DHT22;13348;50.984;5.822;2023-04-03T15:22:59;11.90;91.30
24448;DHT22;13348;50.984;5.822;2023-04-03T15:25:27;11.90;90.00
24448;DHT22;13348;50.984;5.822;2023-04-03T15:27:55;11.40;89.50
24448;DHT22;13348;50.984;5.822;2023-04-03T15:30:22;11.30;89.10
24448;DHT22;13348;50.984;5.822;2023-04-03T15:32:49;11.80;91.00
24448;DHT22;13348;50.984;5.822;2023-04-03T15:35:16;11.30;89.70
24448;DHT22;13348;50.984;5.822;2023-04-03T15:37:43;11.30;87.50
24448;DHT22;13348;50.984;5.822;2023-04-03T15:40:10;11.70;90.30
24448;DHT22;13348;50.984;5.822;2023-04-03T15:42:37;11.50;89.00
24448;DHT22;13348;50.984;5.822;2023-04-03T15:45:07;11.60;90.20
24448;DHT22;13348;50.984;5.822;2023-04-03T15:47:34;11.10;91.30
24448;DHT22;13348;50.984;5.822;2023-04-03T15:50:01;11.10;90.70
24448;DHT22;13348;50.984;5.822;2023-04-03T15:52:31;11.10;90.40
24448;DHT22;13348;50.984;5.822;2023-04-03T15:54:58;10.90;91.90
24448;DHT22;13348;50.984;5.822;2023-04-03T15:57:25;10.80;92.80
24448;DHT22;13348;50.984;5.822;2023-04-03T15:59:52;11.10;91.40
24448;DHT22;13348;50.984;5.822;2023-04-03T16:02:20;11.10;93.30
24448;DHT22;13348;50.984;5.822;2023-04-03T16:04:47;11.20;92.30
24448;DHT22;13348;50.984;5.822;2023-04-03T16:07:14;11.10;92.60